Time;durP1;ratioP1;P1;durP2;ratioP2;P2;SDS_P1;SDS_P2;PMS_P1;PMS_P2;Temp;Humidity;BMP_temperature;BMP_pressure;BME280_temperature;BME280_humidity;BME280_pressure;Samples;Min_cycle;Max_cycle;Signal;HPM_P1;HPM_P2
2023/09/19 00:02:18;;;;;;;4.30;1.70;;;;;;;15.66;100.00;99910.38;5005809;28;20303;-69
2023/09/19 00:04:44;;;;;;;4.07;2.03;;;;;;;15.60;100.00;99904.22;5004308;28;20212;-70
2023/09/19 00:07:11;;;;;;;3.50;1.97;;;;;;;15.60;100.00;99917.56;5002188;28;20218;-69
2023/09/19 00:09:37;;;;;;;4.50;2.37;;;;;;;15.60;100.00;99925.56;4995300;28;20284;-70
2023/09/19 00:12:06;;;;;;;6.97;2.10;;;;;;;15.56;100.00;99922.03;5000933;28;20188;-70
2023/09/19 00:14:35;;;;;;;3.40;1.93;;;;;;;15.53;100.00;99930.09;4994993;28;20319;-70
2023/09/19 00:17:08;;;;;;;3.53;2.00;;;;;;;15.49;100.00;99933.69;5004180;28;20227;-70
2023/09/19 00:19:35;;;;;;;3.03;2.13;;;;;;;15.41;100.00;99929.38;5001987;28;20200;-70
2023/09/19 00:22:02;;;;;;;3.60;1.90;;;;;;;15.30;100.00;99929.53;5001145;28;20271;-70
2023/09/19 00:24:29;;;;;;;2.80;1.73;;;;;;;15.25;100.00;99923.38;5004397;28;20220;-70
2023/09/19 00:26:55;;;;;;;2.77;1.77;;;;;;;15.18;100.00;99927.88;4995476;28;20284;-69
2023/09/19 00:29:23;;;;;;;6.37;2.00;;;;;;;15.16;100.00;99924.34;5001250;28;20208;-70
2023/09/19 00:31:49;;;;;;;4.77;2.00;;;;;;;15.09;100.00;99919.13;4999421;28;20675;-69
2023/09/19 00:34:16;;;;;;;3.50;1.90;;;;;;;15.05;100.00;99923.59;5020885;28;20520;-70
2023/09/19 00:36:43;;;;;;;4.03;2.33;;;;;;;15.03;100.00;99918.28;5000107;28;20196;-70
2023/09/19 00:39:10;;;;;;;5.00;2.23;;;;;;;15.03;100.00;99925.41;4994785;28;20254;-70
2023/09/19 00:41:36;;;;;;;6.50;1.77;;;;;;;15.07;100.00;99929.81;5002870;28;20196;-70
2023/09/19 00:44:04;;;;;;;2.83;2.03;;;;;;;15.11;100.00;99934.19;5006189;28;20216;-70
2023/09/19 00:46:32;;;;;;;6.07;2.40;;;;;;;15.16;100.00;99926.13;4998710;28;20290;-70
2023/09/19 00:48:59;;;;;;;4.23;2.73;;;;;;;15.29;100.00;99933.97;4998478;28;20244;-69
2023/09/19 00:51:27;;;;;;;6.37;2.70;;;;;;;15.40;100.00;99941.84;4996845;28;20200;-69
2023/09/19 00:53:54;;;;;;;3.87;2.70;;;;;;;15.52;100.00;99936.31;4996476;28;20671;-69
2023/09/19 00:56:21;;;;;;;3.67;2.47;;;;;;;15.58;100.00;99949.59;5001491;28;20216;-70
2023/09/19 00:58:48;;;;;;;3.97;2.97;;;;;;;15.53;100.00;99948.75;5001266;28;20262;-70
2023/09/19 01:01:14;;;;;;;3.97;2.63;;;;;;;15.47;100.00;99951.53;4997530;28;20218;-69
2023/09/19 01:03:42;;;;;;;6.57;3.00;;;;;;;15.35;100.00;99954.38;4999529;28;20303;-69
2023/09/19 01:06:09;;;;;;;6.47;3.20;;;;;;;15.28;100.00;99958.91;4999729;28;20228;-70
2023/09/19 01:08:36;;;;;;;3.73;2.60;;;;;;;15.14;100.00;99959.94;5001261;28;20271;-70
2023/09/19 01:11:14;;;;;;;6.93;3.20;;;;;;;14.99;100.00;99969.91;5004742;28;20199;-69
2023/09/19 01:13:50;;;;;;;4.83;2.90;;;;;;;14.97;100.00;99984.16;4998904;28;20699;-70
2023/09/19 01:16:46;;;;;;;3.97;3.00;;;;;;;14.98;100.00;99992.13;4998124;28;20223;-70
2023/09/19 01:19:50;;;;;;;4.20;2.73;;;;;;;15.02;100.00;99990.31;4998509;28;20203;-70
2023/09/19 01:22:26;;;;;;;5.20;2.63;;;;;;;15.13;100.00;99993.75;4999443;28;20220;-69
2023/09/19 01:25:24;;;;;;;4.70;2.97;;;;;;;15.17;100.00;99995.47;4996587;28;20218;-70
2023/09/19 01:28:21;;;;;;;3.33;2.60;;;;;;;15.22;100.00;99999.00;4966953;28;20207;-70
2023/09/19 01:30:57;;;;;;;4.77;2.90;;;;;;;15.19;100.00;100004.34;4998309;28;20208;-69
2023/09/19 01:33:25;;;;;;;5.50;3.13;;;;;;;15.16;100.00;100001.69;5001207;28;20220;-70
2023/09/19 01:35:53;;;;;;;4.23;2.90;;;;;;;15.10;100.00;100007.13;4993430;28;20227;-69
2023/09/19 01:38:19;;;;;;;3.60;3.03;;;;;;;15.11;100.00;100006.22;4999926;28;20196;-69
2023/09/19 01:40:58;;;;;;;4.43;2.90;;;;;;;15.07;100.00;100004.47;4998735;28;20207;-69
2023/09/19 01:43:35;;;;;;;4.20;2.70;;;;;;;15.03;100.00;100011.63;5001382;28;20707;-70
2023/09/19 01:46:22;;;;;;;3.73;2.70;;;;;;;15.12;100.00;100021.31;4998131;28;20335;-69
2023/09/19 01:49:02;;;;;;;5.53;3.07;;;;;;;15.18;100.00;100009.69;5000195;28;20205;-69
2023/09/19 01:51:37;;;;;;;3.53;2.80;;;;;;;15.22;100.00;100020.34;5002825;28;20585;-69
2023/09/19 01:54:08;;;;;;;6.43;3.40;;;;;;;15.25;100.00;100025.63;4991724;28;20203;-69
2023/09/19 01:57:01;;;;;;;6.97;3.53;;;;;;;15.30;100.00;100028.25;5001379;28;20196;-69
2023/09/19 01:59:35;;;;;;;5.90;3.10;;;;;;;15.34;100.00;100035.31;4999768;28;20231;-70
2023/09/19 02:02:05;;;;;;;4.10;3.13;;;;;;;15.48;100.00;100035.13;5001328;28;20288;-70
2023/09/19 02:04:34;;;;;;;5.37;2.60;;;;;;;15.51;100.00;100046.66;5004486;28;20592;-69
2023/09/19 02:07:02;;;;;;;4.80;2.97;;;;;;;15.42;100.00;100044.09;5000104;28;20215;-69
2023/09/19 02:09:29;;;;;;;3.87;2.87;;;;;;;15.44;100.00;100036.06;5004280;28;20193;-70
2023/09/19 02:11:55;;;;;;;3.83;3.07;;;;;;;15.45;100.00;100044.06;5002706;28;20676;-69
2023/09/19 02:14:22;;;;;;;3.60;2.67;;;;;;;15.37;100.00;100037.94;4998616;28;20311;-70
2023/09/19 02:16:50;;;;;;;3.97;2.70;;;;;;;15.31;100.00;100040.69;5005310;28;20207;-70
2023/09/19 02:19:17;;;;;;;3.63;2.90;;;;;;;15.26;100.00;100048.75;5007540;28;20200;-70
2023/09/19 02:21:43;;;;;;;4.63;2.70;;;;;;;15.28;100.00;100044.28;5004136;28;20196;-69
2023/09/19 02:24:09;;;;;;;4.67;2.87;;;;;;;15.24;100.00;100042.53;5008508;28;20696;-70
2023/09/19 02:26:36;;;;;;;4.13;2.77;;;;;;;15.17;100.00;100054.16;5022689;28;20575;-69
2023/09/19 02:29:04;;;;;;;7.17;2.67;;;;;;;15.13;100.00;100052.41;5007233;28;20215;-70
2023/09/19 02:31:31;;;;;;;5.80;2.80;;;;;;;15.11;100.00;100056.91;5005732;28;20204;-69
2023/09/19 02:33:57;;;;;;;4.63;2.57;;;;;;;15.14;100.00;100062.19;5001286;28;20678;-70
2023/09/19 02:36:24;;;;;;;5.83;2.90;;;;;;;15.25;100.00;100056.78;5004337;28;20312;-70
2023/09/19 02:38:50;;;;;;;3.13;2.63;;;;;;;15.22;100.00;100056.81;5004858;28;20208;-70
2023/09/19 02:41:17;;;;;;;3.67;2.50;;;;;;;15.18;100.00;100055.91;5008673;28;20200;-69
2023/09/19 02:43:43;;;;;;;4.13;2.60;;;;;;;15.07;100.00;100051.59;5005028;28;20212;-69
2023/09/19 02:46:11;;;;;;;6.07;2.40;;;;;;;14.98;100.00;100047.25;5002100;28;20236;-69
2023/09/19 02:48:38;;;;;;;3.87;2.80;;;;;;;14.88;100.00;100045.59;5007900;28;20670;-70
2023/09/19 02:51:05;;;;;;;3.57;2.60;;;;;;;14.74;100.00;100038.59;5004616;28;20286;-69
2023/09/19 02:53:32;;;;;;;2.83;2.40;;;;;;;14.64;100.00;100047.56;4997901;28;20192;-69
2023/09/19 02:55:58;;;;;;;3.67;2.30;;;;;;;14.55;100.00;100047.66;5009716;28;20955;-69
2023/09/19 02:58:25;;;;;;;5.03;2.50;;;;;;;14.46;100.00;100057.50;5002969;28;20207;-70
2023/09/19 03:00:51;;;;;;;2.83;2.00;;;;;;;14.35;100.00;100045.09;5005557;28;20311;-70
2023/09/19 03:03:18;;;;;;;5.13;2.70;;;;;;;14.32;100.00;100060.22;5003969;28;20220;-69
2023/09/19 03:05:48;;;;;;;5.80;2.47;;;;;;;14.26;100.00;100057.59;5002987;28;20686;-69
2023/09/19 03:08:17;;;;;;;5.63;2.60;;;;;;;14.21;100.00;100059.41;5001697;28;20220;-69
2023/09/19 03:10:47;;;;;;;4.20;2.60;;;;;;;14.19;100.00;100055.88;5004296;28;20196;-69
2023/09/19 03:13:14;;;;;;;4.77;2.90;;;;;;;14.18;100.00;100062.97;5005300;28;20212;-69
2023/09/19 03:15:44;;;;;;;3.87;2.50;;;;;;;14.10;100.00;100071.03;5006058;28;20224;-69
2023/09/19 03:18:11;;;;;;;3.53;2.60;;;;;;;14.02;100.00;100077.31;5002956;28;20742;-69
2023/09/19 03:20:38;;;;;;;4.73;2.50;;;;;;;14.00;100.00;100066.63;5004510;28;20208;-68
2023/09/19 03:23:06;;;;;;;4.53;2.53;;;;;;;13.97;100.00;100063.97;5004803;28;20288;-69
2023/09/19 03:25:34;;;;;;;4.57;2.90;;;;;;;13.96;100.00;100078.19;5006818;28;20220;-70
2023/09/19 03:28:05;;;;;;;4.40;2.80;;;;;;;13.98;100.00;100081.72;5003893;28;20214;-68
2023/09/19 03:30:33;;;;;;;3.60;2.77;;;;;;;13.92;100.00;100086.19;5002309;28;20204;-69
2023/09/19 03:33:00;;;;;;;3.40;2.40;;;;;;;13.84;100.00;100086.25;5000688;28;20250;-70
2023/09/19 03:35:26;;;;;;;6.77;2.20;;;;;;;13.83;100.00;100089.81;5007649;28;20620;-68
2023/09/19 03:37:53;;;;;;;5.00;2.23;;;;;;;13.74;100.00;100089.84;5008230;28;20200;-69
2023/09/19 03:40:21;;;;;;;3.37;2.37;;;;;;;13.77;100.00;100087.16;5005118;28;20732;-70
2023/09/19 03:42:48;;;;;;;5.17;2.20;;;;;;;13.68;100.00;100084.56;5003417;28;20200;-70
2023/09/19 03:45:16;;;;;;;5.63;2.60;;;;;;;13.64;100.00;100093.44;5010291;28;20670;-69
2023/09/19 03:47:42;;;;;;;6.23;2.73;;;;;;;13.60;100.00;100092.53;5012028;28;20199;-69
2023/09/19 03:50:10;;;;;;;4.43;2.23;;;;;;;13.55;100.00;100090.78;5006832;28;20204;-70
2023/09/19 03:52:38;;;;;;;4.60;2.80;;;;;;;13.50;100.00;100098.78;5004319;28;20196;-71
2023/09/19 03:55:04;;;;;;;3.07;2.47;;;;;;;13.46;100.00;100100.59;5005947;28;20224;-70
2023/09/19 03:57:31;;;;;;;4.00;2.40;;;;;;;13.45;100.00;100106.78;5002868;28;20527;-71
2023/09/19 03:59:57;;;;;;;4.40;2.70;;;;;;;13.42;100.00;100105.91;5006358;28;20212;-71
2023/09/19 04:02:24;;;;;;;6.67;2.50;;;;;;;13.39;100.00;100106.81;5006550;28;20287;-71
2023/09/19 04:04:51;;;;;;;6.00;2.67;;;;;;;13.40;100.00;100107.69;5005731;28;20224;-70
2023/09/19 04:07:22;;;;;;;4.40;2.80;;;;;;;13.42;100.00;100103.25;5001474;28;20291;-72
2023/09/19 04:09:49;;;;;;;4.33;2.67;;;;;;;13.41;100.00;100106.81;5002083;28;20208;-71
2023/09/19 04:12:16;;;;;;;4.40;2.70;;;;;;;13.41;100.00;100106.81;5005589;28;20200;-70
2023/09/19 04:14:43;;;;;;;7.40;2.60;;;;;;;13.47;100.00;100113.00;5006290;28;20216;-70
2023/09/19 04:17:10;;;;;;;6.23;2.60;;;;;;;13.52;100.00;100118.28;4998257;28;20582;-70
2023/09/19 04:19:37;;;;;;;5.53;2.90;;;;;;;13.50;100.00;100117.41;5009354;28;20584;-69
2023/09/19 04:22:04;;;;;;;3.73;2.50;;;;;;;13.60;100.00;100123.59;5007323;28;20201;-71
2023/09/19 04:24:32;;;;;;;6.83;2.90;;;;;;;13.52;100.00;100115.63;5011655;28;20223;-69
2023/09/19 04:26:59;;;;;;;5.23;2.53;;;;;;;13.45;100.00;100119.22;5002085;28;20718;-70
2023/09/19 04:29:29;;;;;;;4.47;2.50;;;;;;;13.37;100.00;100121.91;5006400;28;20283;-72
2023/09/19 04:31:57;;;;;;;3.63;2.60;;;;;;;13.31;100.00;100113.94;5007393;28;20250;-70
2023/09/19 04:34:24;;;;;;;3.83;2.50;;;;;;;13.26;100.00;100122.81;5003253;28;20213;-71
2023/09/19 04:36:51;;;;;;;5.47;2.73;;;;;;;13.24;100.00;100125.47;4997767;28;20210;-70
2023/09/19 04:39:20;;;;;;;4.43;2.90;;;;;;;13.31;100.00;100123.69;5001332;28;20826;-71
2023/09/19 04:41:47;;;;;;;2.47;2.17;;;;;;;13.29;100.00;100118.38;5010572;28;20350;-70
2023/09/19 04:44:14;;;;;;;4.47;2.40;;;;;;;13.25;100.00;100127.25;4998681;28;20217;-71
2023/09/19 04:46:40;;;;;;;2.97;2.40;;;;;;;13.21;100.00;100130.81;4998302;28;20288;-71
2023/09/19 04:49:07;;;;;;;3.97;2.53;;;;;;;13.16;100.00;100136.06;5004877;28;20296;-69
2023/09/19 04:51:36;;;;;;;5.00;2.50;;;;;;;13.10;100.00;100133.41;4996341;28;20225;-71
2023/09/19 04:54:02;;;;;;;4.40;2.83;;;;;;;13.11;100.00;100140.50;5002213;28;20244;-71
2023/09/19 04:56:29;;;;;;;6.57;2.70;;;;;;;13.10;100.00;100143.16;5003873;28;20196;-71
2023/09/19 04:58:55;;;;;;;5.63;2.60;;;;;;;13.11;100.00;100139.63;4998328;28;20199;-71
2023/09/19 05:01:22;;;;;;;3.50;2.70;;;;;;;13.07;100.00;100138.75;4999261;28;20683;-71
2023/09/19 05:03:52;;;;;;;4.17;2.60;;;;;;;13.00;100.00;100142.28;5002281;28;20219;-70
2023/09/19 05:06:22;;;;;;;5.17;2.63;;;;;;;12.99;100.00;100150.28;4998506;28;20311;-70
2023/09/19 05:08:52;;;;;;;4.83;2.30;;;;;;;12.97;100.00;100152.03;4996568;28;20300;-70
2023/09/19 05:11:21;;;;;;;3.53;2.73;;;;;;;12.93;100.00;100151.16;4997328;28;20287;-71
2023/09/19 05:13:49;;;;;;;5.40;2.47;;;;;;;12.92;100.00;100144.06;5015546;28;20204;-71
2023/09/19 05:16:16;;;;;;;4.17;2.50;;;;;;;12.94;100.00;100152.06;4999927;28;20262;-72
2023/09/19 05:18:43;;;;;;;5.93;2.83;;;;;;;12.94;100.00;100165.34;5014658;28;20205;-70
2023/09/19 05:21:09;;;;;;;6.87;2.93;;;;;;;12.98;100.00;100167.09;5005399;28;20200;-70
2023/09/19 05:23:36;;;;;;;4.20;2.77;;;;;;;12.99;100.00;100167.09;5004939;28;20221;-71
2023/09/19 05:26:05;;;;;;;6.67;3.03;;;;;;;13.02;100.00;100169.75;5001252;28;20248;-71
2023/09/19 05:28:32;;;;;;;7.87;3.20;;;;;;;13.01;100.00;100165.34;5003670;28;20231;-71
2023/09/19 05:31:01;;;;;;;3.90;2.80;;;;;;;13.00;100.00;100174.19;5002390;28;20204;-70
2023/09/19 05:33:28;;;;;;;5.07;3.00;;;;;;;13.03;100.00;100189.25;5003449;28;20199;-70
2023/09/19 05:35:54;;;;;;;7.50;3.17;;;;;;;13.14;100.00;100182.16;5006043;28;20220;-70
2023/09/19 05:38:20;;;;;;;5.67;3.23;;;;;;;13.12;100.00;100182.16;5001085;28;20204;-70
2023/09/19 05:40:47;;;;;;;5.80;3.50;;;;;;;13.14;100.00;100185.69;5004319;28;20675;-70
2023/09/19 05:43:16;;;;;;;4.43;3.00;;;;;;;13.17;100.00;100184.84;5001731;28;20208;-71
2023/09/19 05:45:43;;;;;;;5.50;2.90;;;;;;;13.19;100.00;100188.38;5009775;28;20235;-70
2023/09/19 05:48:13;;;;;;;4.97;3.37;;;;;;;13.21;100.00;100188.38;4995314;28;20664;-72
2023/09/19 05:50:40;;;;;;;4.90;2.90;;;;;;;13.23;100.00;100195.50;4997309;28;20623;-70
2023/09/19 05:53:06;;;;;;;6.77;3.20;;;;;;;13.32;100.00;100195.50;5002394;28;20208;-70
2023/09/19 05:55:33;;;;;;;6.37;3.50;;;;;;;13.40;100.00;100201.69;5001417;28;20743;-70
2023/09/19 05:58:00;;;;;;;4.70;2.90;;;;;;;13.47;100.00;100202.56;4999117;28;20228;-70
2023/09/19 06:00:29;;;;;;;4.40;2.73;;;;;;;13.54;100.00;100203.44;5006117;28;20241;-71
2023/09/19 06:02:57;;;;;;;6.40;3.13;;;;;;;13.57;100.00;100199.00;4995187;28;20739;-71
2023/09/19 06:05:30;;;;;;;4.37;2.90;;;;;;;13.65;100.00;100204.31;5001718;28;20220;-70
2023/09/19 06:07:59;;;;;;;4.83;3.13;;;;;;;13.73;100.00;100200.75;4998382;28;20204;-71
2023/09/19 06:10:27;;;;;;;7.20;3.40;;;;;;;13.83;100.00;100206.03;5001697;28;20193;-70
2023/09/19 06:12:55;;;;;;;4.60;3.20;;;;;;;13.88;100.00;100206.91;5002374;28;20729;-70
2023/09/19 06:15:24;;;;;;;7.93;2.93;;;;;;;13.92;100.00;100211.31;5000002;28;20216;-71
2023/09/19 06:17:55;;;;;;;4.67;3.10;;;;;;;13.96;100.00;100219.31;5002708;28;20255;-71
2023/09/19 06:20:23;;;;;;;4.63;2.63;;;;;;;14.04;100.00;100219.31;5003691;28;20239;-69
2023/09/19 06:22:51;;;;;;;5.10;3.20;;;;;;;14.19;100.00;100223.69;5004884;28;20212;-71
2023/09/19 06:25:22;;;;;;;4.27;3.10;;;;;;;14.29;100.00;100230.72;5002189;28;20228;-71
2023/09/19 06:27:55;;;;;;;7.03;3.30;;;;;;;14.45;100.00;100231.59;5001837;28;20262;-71
2023/09/19 06:30:24;;;;;;;5.03;2.63;;;;;;;14.55;100.00;100234.19;5006237;28;20287;-70
2023/09/19 06:33:01;;;;;;;7.27;3.30;;;;;;;14.64;100.00;100233.25;5008250;28;20212;-70
2023/09/19 06:35:29;;;;;;;5.23;3.30;;;;;;;14.80;100.00;100237.59;4997324;28;20227;-70
2023/09/19 06:37:57;;;;;;;7.97;3.00;;;;;;;14.89;100.00;100228.66;4999718;28;20236;-70
2023/09/19 06:40:24;;;;;;;5.30;2.70;;;;;;;14.99;100.00;100233.03;5007603;28;20200;-71
2023/09/19 06:42:52;;;;;;;5.13;2.70;;;;;;;15.05;100.00;100236.53;5000368;28;20205;-71
2023/09/19 06:45:21;;;;;;;3.77;2.50;;;;;;;15.26;100.00;100240.84;5001309;28;20224;-70
2023/09/19 06:47:50;;;;;;;4.97;2.53;;;;;;;15.35;100.00;100246.09;5001811;28;20262;-69
2023/09/19 06:50:22;;;;;;;5.93;2.40;;;;;;;15.41;100.00;100253.16;5006894;28;20212;-70
2023/09/19 06:52:53;;;;;;;5.80;2.80;;;;;;;15.57;100.00;100245.88;5001620;28;20254;-70
2023/09/19 06:55:21;;;;;;;4.87;2.40;;;;;;;15.71;100.00;100248.47;5000307;28;20222;-72
2023/09/19 06:57:48;;;;;;;4.10;2.40;;;;;;;15.86;100.00;100253.66;4998374;28;20228;-71
2023/09/19 07:00:15;;;;;;;6.47;2.50;;;;;;;15.95;100.00;100261.56;4999979;28;20239;-71
2023/09/19 07:02:42;;;;;;;9.57;2.70;;;;;;;16.06;100.00;100267.72;5005391;28;20211;-71
2023/09/19 07:05:09;;;;;;;6.57;2.97;;;;;;;16.16;100.00;100261.34;5005424;28;20224;-71
2023/09/19 07:07:36;;;;;;;3.87;2.10;;;;;;;16.30;100.00;100271.88;5007377;28;20200;-72
2023/09/19 07:10:05;;;;;;;3.33;1.93;;;;;;;16.42;100.00;100273.53;5010115;28;20208;-71
2023/09/19 07:12:35;;;;;;;3.70;2.20;;;;;;;16.59;100.00;100277.75;5001116;28;20200;-71
2023/09/19 07:15:01;;;;;;;5.27;2.20;;;;;;;16.77;100.00;100278.44;5005685;28;20727;-69
2023/09/19 07:17:30;;;;;;;2.90;2.37;;;;;;;16.86;100.00;100289.91;5006979;28;20197;-69
2023/09/19 07:19:58;;;;;;;5.03;2.20;;;;;;;17.00;100.00;100292.38;5001262;28;20699;-69
2023/09/19 07:22:28;;;;;;;4.43;2.30;;;;;;;17.12;100.00;100291.31;5000648;28;20290;-69
2023/09/19 07:24:54;;;;;;;3.93;1.90;;;;;;;17.16;100.00;100293.03;4990068;28;20228;-70
2023/09/19 07:27:21;;;;;;;2.83;1.87;;;;;;;17.31;100.00;100294.59;4997555;28;20196;-69
2023/09/19 07:29:47;;;;;;;5.33;2.20;;;;;;;17.43;100.00;100303.31;4999814;28;20640;-69
2023/09/19 07:32:17;;;;;;;3.53;2.00;;;;;;;17.49;100.00;100303.22;5003065;28;20204;-69
2023/09/19 07:34:44;;;;;;;3.70;1.97;;;;;;;17.59;100.00;100309.31;4991670;28;20217;-69
2023/09/19 07:37:13;;;;;;;2.97;2.13;;;;;;;17.68;100.00;100313.69;4999182;28;20693;-69
2023/09/19 07:39:41;;;;;;;11.70;2.20;;;;;;;17.78;100.00;100313.50;4993331;28;20567;-70
2023/09/19 07:42:07;;;;;;;4.17;2.20;;;;;;;17.82;100.00;100312.53;4997872;28;20636;-71
2023/09/19 07:44:35;;;;;;;4.67;2.10;;;;;;;17.94;100.00;100318.56;4995820;28;20314;-70
2023/09/19 07:47:03;;;;;;;4.77;1.90;;;;;;;17.90;100.00;100320.41;5004067;28;20208;-71
2023/09/19 07:49:32;;;;;;;3.87;2.03;;;;;;;17.95;100.00;100329.25;5011147;28;20306;-71
2023/09/19 07:51:59;;;;;;;6.77;2.20;;;;;;;18.00;100.00;100326.50;5023759;28;20200;-70
2023/09/19 07:54:26;;;;;;;5.13;2.17;;;;;;;18.04;100.00;100325.56;5003421;28;20282;-71
2023/09/19 07:56:53;;;;;;;2.90;1.80;;;;;;;18.08;100.00;100320.09;5006870;28;20204;-71
2023/09/19 07:59:23;;;;;;;6.40;1.90;;;;;;;18.18;100.00;100326.19;5004220;28;20207;-70
2023/09/19 08:01:49;;;;;;;3.60;1.90;;;;;;;17.98;100.00;100333.69;5004100;28;20204;-71
2023/09/19 08:04:15;;;;;;;6.10;1.70;;;;;;;18.00;100.00;100326.50;5006418;28;20716;-72
2023/09/19 08:06:43;;;;;;;4.33;1.80;;;;;;;18.18;100.00;100339.56;5004880;28;20691;-71
2023/09/19 08:09:14;;;;;;;3.63;1.93;;;;;;;18.06;100.00;100346.06;5001095;28;20266;-71
2023/09/19 08:11:40;;;;;;;4.47;1.93;;;;;;;18.16;100.00;100336.03;5008744;28;20266;-71
2023/09/19 08:14:07;;;;;;;3.30;1.40;;;;;;;18.09;100.00;100340.63;5004586;28;20732;-71
2023/09/19 08:16:33;;;;;;;3.37;1.83;;;;;;;18.30;100.00;100355.44;5000962;28;20207;-72
2023/09/19 08:19:00;;;;;;;3.43;1.70;;;;;;;18.42;100.00;100349.84;5004111;28;20202;-71
2023/09/19 08:21:29;;;;;;;3.53;1.83;;;;;;;18.48;100.00;100354.22;4997969;28;20206;-70
2023/09/19 08:23:57;;;;;;;3.93;1.73;;;;;;;18.58;100.00;100345.06;5002877;28;20204;-71
2023/09/19 08:26:24;;;;;;;4.93;1.77;;;;;;;18.66;100.00;100343.13;5021749;28;20216;-71
2023/09/19 08:28:51;;;;;;;2.63;1.50;;;;;;;18.98;100.00;100344.25;4995436;28;20232;-72
2023/09/19 08:31:17;;;;;;;6.87;1.67;;;;;;;18.98;100.00;100344.25;5001098;28;20270;-72
2023/09/19 08:33:49;;;;;;;4.13;1.80;;;;;;;19.06;100.00;100356.59;5000668;28;20375;-71
2023/09/19 08:36:16;;;;;;;5.43;1.50;;;;;;;19.18;100.00;100352.75;5002993;28;20231;-71
2023/09/19 08:38:45;;;;;;;4.13;1.90;;;;;;;19.10;100.00;100360.09;5005220;28;20767;-71
2023/09/19 08:41:12;;;;;;;4.87;1.80;;;;;;;19.16;100.00;100356.38;5009053;28;20200;-70
2023/09/19 08:43:39;;;;;;;3.00;1.80;;;;;;;19.16;100.00;100359.94;4999536;28;20204;-72
2023/09/19 08:46:15;;;;;;;4.20;1.60;;;;;;;19.46;100.00;100361.06;5006703;28;20220;-71
2023/09/19 08:48:52;;;;;;;3.97;1.65;;;;;;;19.44;100.00;100356.66;5001434;28;20673;-71
2023/09/19 08:51:30;;;;;;;6.72;1.65;;;;;;;19.58;100.00;100358.13;5002301;28;20288;-71
2023/09/19 08:54:07;;;;;;;8.02;1.63;;;;;;;19.77;96.14;100363.94;4997691;28;20204;-70
2023/09/19 08:56:34;;;;;;;6.32;1.60;;;;;;;19.62;91.63;100354.47;4996025;28;20672;-70
2023/09/19 08:59:03;;;;;;;5.28;1.83;;;;;;;19.60;92.24;100372.41;5002792;28;20256;-70
2023/09/19 09:01:32;;;;;;;4.63;1.65;;;;;;;19.52;87.09;100374.34;5002298;28;20575;-70
2023/09/19 09:04:00;;;;;;;3.10;1.63;;;;;;;19.68;85.90;100375.81;5003792;28;20204;-70
2023/09/19 09:06:32;;;;;;;4.80;1.70;;;;;;;19.54;86.95;100377.91;4999169;28;20241;-70
2023/09/19 09:08:59;;;;;;;5.97;1.60;;;;;;;19.48;85.38;100382.53;5002739;28;20676;-69
2023/09/19 09:11:27;;;;;;;4.32;1.65;;;;;;;19.52;85.00;100376.16;5003330;28;20573;-70
2023/09/19 09:13:54;;;;;;;7.43;1.77;;;;;;;19.79;84.82;100374.66;5007132;28;20306;-70
2023/09/19 09:16:20;;;;;;;4.63;1.50;;;;;;;19.90;84.35;100373.47;4999408;28;20217;-70
2023/09/19 09:18:54;;;;;;;5.70;1.60;;;;;;;19.50;80.88;100378.00;4997723;28;20196;-70
2023/09/19 09:21:26;;;;;;;3.60;1.65;;;;;;;19.42;80.83;100372.81;5002456;28;20764;-70
2023/09/19 09:23:53;;;;;;;4.13;1.65;;;;;;;19.37;83.87;100367.53;5005640;28;20218;-70
2023/09/19 09:26:38;;;;;;;4.15;1.55;;;;;;;19.68;82.72;100369.56;5002610;28;20223;-70
2023/09/19 09:29:05;;;;;;;5.43;1.40;;;;;;;19.86;81.34;100370.88;5005655;28;20541;-70
2023/09/19 09:31:31;;;;;;;4.40;1.45;;;;;;;19.80;78.24;100379.09;4997966;28;20200;-71
2023/09/19 09:33:58;;;;;;;3.47;1.77;;;;;;;19.84;78.17;100379.00;4997558;28;20205;-71
2023/09/19 09:36:40;;;;;;;3.95;1.60;;;;;;;19.63;76.78;100388.47;4995410;28;20192;-72
2023/09/19 09:39:18;;;;;;;5.78;1.65;;;;;;;19.71;76.29;100388.28;5002021;28;20479;-71
2023/09/19 09:41:45;;;;;;;6.10;2.00;;;;;;;19.62;76.24;100392.06;5007503;28;20196;-71
2023/09/19 09:44:17;;;;;;;6.13;1.70;;;;;;;19.58;78.58;100384.09;5005019;28;20692;-70
2023/09/19 09:47:27;;;;;;;5.97;1.80;;;;;;;19.65;79.04;100380.38;5004718;28;20267;-69
2023/09/19 09:49:54;;;;;;;3.63;1.45;;;;;;;19.84;75.34;100381.69;5005119;28;20196;-69
2023/09/19 09:52:24;;;;;;;6.82;1.80;;;;;;;19.71;72.63;100375.72;5004536;28;20250;-70
2023/09/19 09:55:05;;;;;;;4.53;1.67;;;;;;;20.16;74.34;100382.69;5005908;28;20220;-71
2023/09/19 09:57:31;;;;;;;6.05;1.90;;;;;;;20.23;68.48;100387.84;5004686;28;20667;-71
2023/09/19 10:00:15;;;;;;;5.47;1.77;;;;;;;20.13;67.40;100389.03;5005351;28;20204;-70
2023/09/19 10:02:45;;;;;;;3.92;1.73;;;;;;;19.99;66.60;100386.66;5009187;28;20663;-71
2023/09/19 10:05:34;;;;;;;6.18;1.75;;;;;;;20.19;68.12;100375.41;5003251;28;20224;-70
2023/09/19 10:08:12;;;;;;;7.53;2.47;;;;;;;20.05;67.46;100366.84;5010470;28;20672;-71
2023/09/19 10:13:14;;;;;;;6.80;1.70;;;;;;;20.22;64.19;100369.94;4998016;28;20204;-69
2023/09/19 10:15:50;;;;;;;8.05;1.95;;;;;;;20.37;62.27;100374.03;5001658;28;20242;-70
2023/09/19 10:18:27;;;;;;;8.38;2.22;;;;;;;19.86;65.13;100382.53;5004662;28;20203;-70
2023/09/19 10:20:56;;;;;;;6.47;1.80;;;;;;;20.07;65.24;100382.94;5007927;28;20335;-70
2023/09/19 10:23:27;;;;;;;9.15;2.00;;;;;;;20.49;65.82;100376.44;5005995;28;20207;-71
2023/09/19 10:25:53;;;;;;;3.75;1.60;;;;;;;20.75;63.39;100369.44;5003433;28;20232;-71
2023/09/19 10:28:21;;;;;;;3.47;1.50;;;;;;;21.14;63.41;100380.84;5003942;28;20192;-72
2023/09/19 10:30:52;;;;;;;9.45;2.00;;;;;;;21.32;62.89;100374.06;5001740;28;20561;-72
2023/09/19 10:33:21;;;;;;;7.60;1.77;;;;;;;21.02;59.40;100378.53;5002958;28;20263;-72
2023/09/19 10:35:55;;;;;;;6.75;1.98;;;;;;;20.60;60.69;100373.44;5009112;28;20213;-71
2023/09/19 10:38:24;;;;;;;4.20;1.60;;;;;;;21.17;59.28;100365.47;5001065;28;20203;-71
2023/09/19 10:40:54;;;;;;;4.53;1.70;;;;;;;21.14;59.55;100370.94;5003484;28;20484;-72
2023/09/19 10:43:25;;;;;;;7.00;1.70;;;;;;;21.39;58.68;100376.50;5003786;28;20197;-72
2023/09/19 10:45:53;;;;;;;5.00;1.52;;;;;;;21.79;56.08;100367.16;5022901;28;20223;-71
2023/09/19 10:48:25;;;;;;;6.38;1.67;;;;;;;21.84;55.84;100371.47;5007583;28;20201;-72
2023/09/19 10:51:04;;;;;;;5.47;1.98;;;;;;;21.53;56.65;100376.94;5003738;28;20267;-72
2023/09/19 10:53:50;;;;;;;5.22;1.70;;;;;;;21.55;55.66;100372.41;5013585;28;20197;-72
2023/09/19 10:56:23;;;;;;;6.00;2.60;;;;;;;21.48;56.55;100364.56;5002832;28;21588;-72
2023/09/19 10:58:50;;;;;;;4.63;1.98;;;;;;;21.27;57.05;100368.81;5010840;28;20204;-72
2023/09/19 11:01:17;;;;;;;7.60;1.92;;;;;;;20.76;58.83;100364.00;5002429;28;20200;-71
2023/09/19 11:03:48;;;;;;;6.13;1.75;;;;;;;20.42;58.65;100358.72;5007978;28;20305;-71
2023/09/19 11:06:18;;;;;;;6.57;1.92;;;;;;;20.62;60.93;100352.75;5030832;23;20216;-72
2023/09/19 11:08:51;;;;;;;4.70;1.60;;;;;;;20.75;60.22;100348.78;4993890;28;20204;-70
2023/09/19 11:11:43;;;;;;;5.57;1.70;;;;;;;20.89;58.30;100343.00;4996115;28;20201;-71
2023/09/19 11:17:15;;;;;;;5.20;1.67;;;;;;;21.62;55.03;100334.50;5003850;28;20254;-71
2023/09/19 11:22:53;;;;;;;4.65;1.98;;;;;;;22.33;53.36;100326.63;4995767;28;20280;-70
2023/09/19 11:25:30;;;;;;;4.50;1.50;;;;;;;22.60;50.57;100329.28;4991387;28;20224;-70
2023/09/19 11:28:08;;;;;;;5.15;1.85;;;;;;;22.46;50.49;100305.50;4988726;28;20204;-70
2023/09/19 11:30:37;;;;;;;4.25;1.70;;;;;;;22.52;50.28;100324.16;5002880;28;20287;-69
2023/09/19 11:33:33;;;;;;;5.30;1.77;;;;;;;22.57;49.38;100318.59;4982974;28;20209;-70
2023/09/19 11:36:04;;;;;;;3.97;1.42;;;;;;;22.55;50.08;100320.47;4982455;28;20598;-70
2023/09/19 11:38:55;;;;;;;6.00;1.42;;;;;;;22.50;49.86;100318.84;4988772;28;20755;-70
2023/09/19 11:41:29;;;;;;;4.18;1.35;;;;;;;22.36;50.23;100317.53;4988278;28;20760;-71